Time,TemperatureF,DewpointF,PressureIn,WindDirection,WindDirectionDegrees,WindSpeedMPH,WindSpeedGustMPH,Humidity,HourlyPrecipIn,Conditions,Clouds,dailyrainin,SoftwareType,DateUTC
2013-11-03 00:23:00,42.0,-99.9,30.16,North,-999,9.0,11.0,-999,-99.99,,,-99.99,,2013-11-03 05:23:00,
2013-11-03 00:53:00,42.0,-99.9,30.16,North,-999,9.0,11.0,-999,-99.99,,,-99.99,,2013-11-03 05:53:00,
2013-11-03 01:23:00,42.0,-99.9,30.16,North,-999,9.0,9.0,-999,-99.99,,,-99.99,,2013-11-03 06:23:00,
2013-11-03 01:52:00,42.0,-99.9,30.17,North,-999,9.0,9.0,-999,-99.99,,,-99.99,,2013-11-03 07:52:00,
2013-11-03 04:42:00,40.0,-99.9,30.22,North,-999,0.0,2.0,-999,-99.99,,,-99.99,,2013-11-03 10:42:00,
2013-11-03 04:53:00,40.0,-99.9,30.22,North,-999,0.0,2.0,-999,-99.99,,,-99.99,,2013-11-03 10:53:00,
2013-11-03 08:52:00,40.0,-99.9,30.28,North,-999,9.0,11.0,-999,-99.99,,,-99.99,,2013-11-03 14:52:00,
2013-11-03 09:22:00,41.0,-99.9,30.29,North,-999,7.0,9.0,-999,-99.99,,,-99.99,,2013-11-03 15:22:00,
2013-11-03 09:53:00,41.0,-99.9,30.29,North,-999,4.0,7.0,-999,-99.99,,,-99.99,,2013-11-03 15:53:00,
2013-11-03 10:00:00,42.0,-99.9,30.30,North,-999,7.0,9.0,-999,-99.99,,,-99.99,,2013-11-03 16:00:00,
2013-11-03 10:23:00,42.0,-99.9,30.29,North,-999,7.0,9.0,-999,-99.99,,,-99.99,,2013-11-03 16:23:00,
2013-11-03 10:43:00,42.0,-99.9,30.30,North,-999,7.0,9.0,-999,-99.99,,,-99.99,,2013-11-03 16:43:00,
2013-11-03 10:53:00,42.0,-99.9,30.30,North,-999,7.0,9.0,-999,-99.99,,,-99.99,,2013-11-03 16:53:00,
2013-11-03 11:23:00,43.0,-99.9,30.30,North,-999,7.0,9.0,-999,-99.99,,,-99.99,,2013-11-03 17:23:00,
2013-11-03 11:44:00,43.0,-99.9,30.30,North,-999,7.0,9.0,-999,-99.99,,,-99.99,,2013-11-03 17:44:00,
2013-11-03 11:53:00,43.0,-99.9,30.30,North,-999,7.0,9.0,-999,-99.99,,,-99.99,,2013-11-03 17:53:00,
2013-11-03 12:23:00,43.0,-99.9,30.31,North,-999,7.0,7.0,-999,-99.99,,,-99.99,,2013-11-03 18:23:00,
2013-11-03 12:52:00,44.0,-99.9,30.31,North,-999,7.0,7.0,-999,-99.99,,,-99.99,,2013-11-03 18:52:00,
2013-11-03 13:12:00,44.0,-99.9,30.29,North,-999,4.0,7.0,-999,-99.99,,,-99.99,,2013-11-03 19:12:00,
2013-11-03 13:22:00,44.0,-99.9,30.29,North,-999,4.0,7.0,-999,-99.99,,,-99.99,,2013-11-03 19:22:00,
2013-11-03 13:53:00,45.0,-99.9,30.29,North,-999,9.0,11.0,-999,-99.99,,,-99.99,,2013-11-03 19:53:00,
2013-11-03 14:22:00,45.0,-99.9,30.28,North,-999,13.0,16.0,-999,-99.99,,,-99.99,,2013-11-03 20:22:00,
2013-11-03 14:53:00,45.0,-99.9,30.27,North,-999,13.0,16.0,-999,-99.99,,,-99.99,,2013-11-03 20:53:00,
2013-11-03 15:22:00,46.0,-99.9,30.27,North,-999,16.0,20.0,-999,-99.99,,,-99.99,,2013-11-03 21:22:00,
2013-11-03 15:43:00,46.0,-99.9,30.27,North,-999,20.0,22.0,-999,-99.99,,,-99.99,,2013-11-03 21:43:00,
2013-11-03 15:55:00,46.0,-99.9,30.27,North,-999,20.0,22.0,-999,-99.99,,,-99.99,,2013-11-03 21:55:00,
2013-11-03 16:23:00,46.0,-99.9,30.27,North,-999,16.0,20.0,-999,-99.99,,,-99.99,,2013-11-03 22:23:00,
2013-11-03 16:52:00,45.0,-99.9,30.27,North,-999,20.0,25.0,-999,-99.99,,,-99.99,,2013-11-03 22:52:00,
2013-11-03 17:23:00,45.0,-99.9,30.27,North,-999,16.0,18.0,-999,-99.99,,,-99.99,,2013-11-03 23:23:00,
2013-11-03 17:53:00,44.0,-99.9,30.27,North,-999,16.0,20.0,-999,-99.99,,,-99.99,,2013-11-03 23:53:00,
2013-11-03 18:22:00,44.0,-99.9,30.26,North,-999,16.0,16.0,-999,-99.99,,,-99.99,,2013-11-04 00:22:00,
2013-11-03 18:42:00,45.0,-99.9,30.26,North,-999,13.0,16.0,-999,-99.99,,,-99.99,,2013-11-04 00:42:00,
2013-11-03 18:52:00,45.0,-99.9,30.26,North,-999,13.0,16.0,-999,-99.99,,,-99.99,,2013-11-04 00:52:00,
2013-11-03 19:22:00,45.0,-99.9,30.27,North,-999,16.0,20.0,-999,-99.99,,,-99.99,,2013-11-04 01:22:00,
2013-11-03 19:42:00,45.0,-99.9,30.25,North,-999,18.0,22.0,-999,-99.99,,,-99.99,,2013-11-04 01:42:00,
2013-11-03 19:52:00,45.0,-99.9,30.25,North,-999,18.0,22.0,-999,-99.99,,,-99.99,,2013-11-04 01:52:00,
2013-11-03 20:22:00,45.0,-99.9,30.25,North,-999,20.0,25.0,-999,-99.99,,,-99.99,,2013-11-04 02:22:00,
2013-11-03 20:42:00,46.0,-99.9,30.26,North,-999,18.0,22.0,-999,-99.99,,,-99.99,,2013-11-04 02:42:00,
2013-11-03 20:53:00,46.0,-99.9,30.26,North,-999,18.0,22.0,-999,-99.99,,,-99.99,,2013-11-04 02:53:00,
2013-11-03 21:00:00,46.0,-99.9,30.26,North,-999,16.0,18.0,-999,-99.99,,,-99.99,,2013-11-04 03:00:00,
2013-11-03 21:22:00,46.0,-99.9,30.26,North,-999,18.0,18.0,-999,-99.99,,,-99.99,,2013-11-04 03:22:00,
2013-11-03 21:44:00,46.0,-99.9,30.26,North,-999,16.0,18.0,-999,-99.99,,,-99.99,,2013-11-04 03:44:00,
2013-11-03 21:54:00,46.0,-99.9,30.26,North,-999,16.0,18.0,-999,-99.99,,,-99.99,,2013-11-04 03:54:00,
2013-11-03 22:24:00,46.0,-99.9,30.26,North,-999,16.0,18.0,-999,-99.99,,,-99.99,,2013-11-04 04:24:00,
2013-11-03 22:53:00,46.0,-99.9,30.26,North,-999,16.0,20.0,-999,-99.99,,,-99.99,,2013-11-04 04:53:00,
2013-11-03 23:24:00,46.0,-99.9,30.26,North,-999,16.0,18.0,-999,-99.99,,,-99.99,,2013-11-04 05:24:00,
2013-11-03 23:53:00,46.0,-99.9,30.26,North,-999,18.0,22.0,-999,-99.99,,,-99.99,,2013-11-04 05:53:00,